createdAt,value
2022-10-15T00:01:50.537Z,92.19
2022-10-15T00:04:19.071Z,91.70
2022-10-15T00:06:47.476Z,92.11
2022-10-15T00:09:15.895Z,92.09
2022-10-15T00:11:44.353Z,92.31
2022-10-15T00:14:14.161Z,91.82
2022-10-15T00:16:42.450Z,91.62
2022-10-15T00:19:10.821Z,91.69
2022-10-15T00:21:39.214Z,91.59
2022-10-15T00:24:08.012Z,91.52
2022-10-15T00:26:36.509Z,92.00
2022-10-15T00:29:05.719Z,91.62
2022-10-15T00:31:35.667Z,91.82
2022-10-15T00:34:04.337Z,91.98
2022-10-15T00:36:34.852Z,91.59
2022-10-15T00:39:04.768Z,92.22
2022-10-15T00:41:35.592Z,92.49
2022-10-15T00:44:42.147Z,92.18
2022-10-15T00:47:17.709Z,91.94
2022-10-15T00:49:52.221Z,92.51
2022-10-15T00:52:24.988Z,92.11
2022-10-15T00:54:58.893Z,92.25
2022-10-15T00:57:28.040Z,92.39
2022-10-15T01:00:01.723Z,92.63
2022-10-15T01:02:31.848Z,92.52
2022-10-15T01:05:01.242Z,92.31
2022-10-15T01:07:29.788Z,92.64
2022-10-15T01:09:58.350Z,92.57
2022-10-15T01:12:37.200Z,92.32
2022-10-15T01:15:17.857Z,92.28
2022-10-15T01:17:51.621Z,92.35
2022-10-15T01:20:51.111Z,92.45
2022-10-15T01:23:44.465Z,92.12
2022-10-15T01:26:37.560Z,92.48
2022-10-15T01:29:21.180Z,92.64
2022-10-15T01:32:00.102Z,92.85
2022-10-15T01:34:37.332Z,92.98
2022-10-15T01:37:10.121Z,92.91
2022-10-15T01:39:42.918Z,92.70
2022-10-15T01:42:19.160Z,92.63
2022-10-15T01:44:54.082Z,92.90
2022-10-15T01:47:46.353Z,93.18
2022-10-15T01:50:17.987Z,92.79
2022-10-15T01:52:46.537Z,93.21
2022-10-15T01:55:17.309Z,92.64
2022-10-15T01:57:47.188Z,92.81
2022-10-15T02:00:17.062Z,92.17
2022-10-15T02:02:46.974Z,92.20
2022-10-15T02:05:21.007Z,92.75
2022-10-15T02:07:59.967Z,92.47
2022-10-15T02:10:32.937Z,92.45
2022-10-15T02:13:11.206Z,92.72
2022-10-15T02:15:47.033Z,92.43
2022-10-15T02:18:26.310Z,92.84
2022-10-15T02:20:59.367Z,92.89
2022-10-15T02:23:33.668Z,92.96
2022-10-15T02:26:07.789Z,93.28
2022-10-15T02:28:39.287Z,93.06
2022-10-15T02:31:11.918Z,93.17
2022-10-15T02:33:42.884Z,93.35
2022-10-15T02:36:15.841Z,92.90
2022-10-15T02:38:46.109Z,93.10
2022-10-15T02:41:15.021Z,93.45
2022-10-15T02:43:43.538Z,93.33
2022-10-15T02:46:15.888Z,93.09
2022-10-15T02:48:47.722Z,93.54
2022-10-15T02:51:19.237Z,93.15
2022-10-15T02:53:47.755Z,93.08
2022-10-15T02:56:16.240Z,93.65
2022-10-15T02:58:45.449Z,93.43
2022-10-15T03:01:14.323Z,93.12
2022-10-15T03:03:42.849Z,93.10
2022-10-15T03:06:12.722Z,93.30
2022-10-15T03:08:43.012Z,92.97
2022-10-15T03:11:12.253Z,93.06
2022-10-15T03:13:41.044Z,93.16
2022-10-15T03:16:10.853Z,93.20
2022-10-15T03:18:41.357Z,93.07
2022-10-15T03:21:12.998Z,93.25
2022-10-15T03:23:42.049Z,92.89
2022-10-15T03:26:19.344Z,93.20
2022-10-15T03:28:47.822Z,92.91
2022-10-15T03:31:27.330Z,92.80
2022-10-15T03:33:57.758Z,92.71
2022-10-15T03:36:29.061Z,93.05
2022-10-15T03:38:57.682Z,92.37
2022-10-15T03:41:26.638Z,93.07
2022-10-15T03:43:55.116Z,93.10
2022-10-15T03:46:23.624Z,93.35
2022-10-15T03:48:52.118Z,93.05
2022-10-15T03:51:24.543Z,92.89
2022-10-15T03:54:01.773Z,93.09
2022-10-15T03:56:30.250Z,92.58
2022-10-15T03:59:14.325Z,93.51
2022-10-15T04:01:43.020Z,92.51
2022-10-15T04:04:12.120Z,92.00
2022-10-15T04:06:41.207Z,91.98
2022-10-15T04:09:15.721Z,92.55
2022-10-15T04:11:44.156Z,91.76
2022-10-15T04:14:13.085Z,92.12
2022-10-15T04:16:41.518Z,92.27
2022-10-15T04:19:20.604Z,91.52
2022-10-15T04:22:00.194Z,90.71
2022-10-15T04:24:34.881Z,91.13
2022-10-15T04:27:03.824Z,91.11
2022-10-15T04:29:32.669Z,90.18
2022-10-15T04:32:15.176Z,89.80
2022-10-15T04:34:45.631Z,90.01
2022-10-15T04:37:14.888Z,90.67
2022-10-15T04:39:44.861Z,89.66
2022-10-15T04:42:15.739Z,89.77
2022-10-15T04:44:44.168Z,89.92
2022-10-15T04:47:13.879Z,89.48
2022-10-15T04:49:49.355Z,89.94
2022-10-15T04:52:49.657Z,89.44
2022-10-15T04:55:20.644Z,89.87
2022-10-15T04:57:49.772Z,90.31
2022-10-15T05:00:25.692Z,90.06
2022-10-15T05:02:59.828Z,91.05
2022-10-15T05:05:40.068Z,90.54
2022-10-15T05:08:08.896Z,90.87
2022-10-15T05:11:01.289Z,90.62
2022-10-15T05:13:30.517Z,90.68
2022-10-15T05:16:09.228Z,90.84
2022-10-15T05:18:38.828Z,90.43
2022-10-15T05:21:07.677Z,90.87
2022-10-15T05:23:37.699Z,90.64
2022-10-15T05:26:23.986Z,90.19
2022-10-15T05:28:53.671Z,89.78
2022-10-15T05:31:30.554Z,88.93
2022-10-15T05:34:19.339Z,89.09
2022-10-15T05:36:59.240Z,89.41
2022-10-15T05:39:27.705Z,88.37
2022-10-15T05:41:58.384Z,88.15
2022-10-15T05:44:58.833Z,87.65
2022-10-15T05:47:27.345Z,88.35
2022-10-15T05:50:13.234Z,87.88
2022-10-15T05:52:46.137Z,86.33
2022-10-15T05:55:23.538Z,86.30
2022-10-15T05:57:53.353Z,84.81
2022-10-15T06:00:21.772Z,86.06
2022-10-15T06:05:27.637Z,85.54
2022-10-15T06:07:57.495Z,85.64
2022-10-15T06:10:25.924Z,84.84
2022-10-15T06:12:55.725Z,86.15
2022-10-15T06:15:24.223Z,85.47
2022-10-15T06:17:54.089Z,86.36
2022-10-15T06:20:22.531Z,84.62
2022-10-15T06:22:50.956Z,83.62
2022-10-15T06:25:19.350Z,84.46
2022-10-15T06:27:47.748Z,85.05
2022-10-15T06:30:17.562Z,84.43
2022-10-15T06:32:49.012Z,84.83
2022-10-15T06:35:18.356Z,81.61
2022-10-15T06:37:46.754Z,83.17
2022-10-15T06:40:16.012Z,83.74
2022-10-15T06:42:46.289Z,83.03
2022-10-15T06:45:16.918Z,82.77
2022-10-15T06:47:49.298Z,82.89
2022-10-15T06:50:17.907Z,80.82
2022-10-15T06:52:46.371Z,81.25
2022-10-15T06:55:14.993Z,82.58
2022-10-15T06:57:43.362Z,83.05
2022-10-15T07:00:17.906Z,84.40
2022-10-15T07:02:50.215Z,83.55
2022-10-15T07:05:18.705Z,83.16
2022-10-15T07:07:52.557Z,85.16
2022-10-15T07:10:22.416Z,84.61
2022-10-15T07:12:50.871Z,84.64
2022-10-15T07:15:20.644Z,84.30
2022-10-15T07:17:51.397Z,84.86
2022-10-15T07:20:26.423Z,84.59
2022-10-15T07:22:57.514Z,85.25
2022-10-15T07:25:30.833Z,84.86
2022-10-15T07:27:59.265Z,84.86
2022-10-15T07:30:28.408Z,85.61
2022-10-15T07:32:58.560Z,85.71
2022-10-15T07:35:28.002Z,85.42
2022-10-15T07:37:56.682Z,85.18
2022-10-15T07:40:25.210Z,83.67
2022-10-15T07:42:55.408Z,83.66
2022-10-15T07:45:27.251Z,83.39
2022-10-15T07:47:55.779Z,85.43
2022-10-15T07:50:28.186Z,84.07
2022-10-15T07:53:02.229Z,84.01
2022-10-15T07:55:30.832Z,83.91
2022-10-15T07:57:59.624Z,84.10
2022-10-15T08:00:28.192Z,83.09
2022-10-15T08:02:56.791Z,83.06
2022-10-15T08:05:26.689Z,83.66
2022-10-15T08:07:55.216Z,83.26
2022-10-15T08:10:23.757Z,83.75
2022-10-15T08:12:52.227Z,83.84
2022-10-15T08:15:20.850Z,84.71
2022-10-15T08:17:49.277Z,84.06
2022-10-15T08:20:17.716Z,84.90
2022-10-15T08:22:47.746Z,85.44
2022-10-15T08:25:16.461Z,85.70
2022-10-15T08:27:44.898Z,85.87
2022-10-15T08:30:13.346Z,87.07
2022-10-15T08:32:41.805Z,88.45
2022-10-15T08:35:10.331Z,88.47
2022-10-15T08:37:38.760Z,88.06
2022-10-15T08:40:10.885Z,88.37
2022-10-15T08:42:42.480Z,88.25
2022-10-15T08:45:15.156Z,89.73
2022-10-15T08:47:48.594Z,88.82
2022-10-15T08:50:27.415Z,89.43
2022-10-15T08:52:58.279Z,89.83
2022-10-15T08:55:35.505Z,90.20
2022-10-15T08:58:13.921Z,89.47
2022-10-15T09:00:47.374Z,89.41
2022-10-15T09:03:32.896Z,89.99
2022-10-15T09:06:10.326Z,88.84
2022-10-15T09:08:48.477Z,88.89
2022-10-15T09:11:25.416Z,89.88
2022-10-15T09:13:54.285Z,89.48
2022-10-15T09:16:29.681Z,89.58
2022-10-15T09:19:03.728Z,89.31
2022-10-15T09:21:33.382Z,88.79
2022-10-15T09:24:02.843Z,87.72
2022-10-15T09:26:48.315Z,88.40
2022-10-15T09:29:24.696Z,87.26
2022-10-15T09:32:04.254Z,86.53
2022-10-15T09:34:38.621Z,86.43
2022-10-15T09:37:13.385Z,87.38
2022-10-15T09:39:55.075Z,84.14
2022-10-15T09:42:31.294Z,85.00
2022-10-15T09:45:03.569Z,85.34
2022-10-15T09:47:35.361Z,85.31
2022-10-15T09:50:05.988Z,84.08
2022-10-15T09:52:56.800Z,83.02
2022-10-15T09:55:35.902Z,83.11
2022-10-15T09:58:09.665Z,81.92
2022-10-15T10:00:59.769Z,82.20
2022-10-15T10:03:34.646Z,82.88
2022-10-15T10:06:06.216Z,81.50
2022-10-15T10:08:41.027Z,80.36
2022-10-15T10:11:12.824Z,82.23
2022-10-15T10:13:50.512Z,81.47
2022-10-15T10:16:20.981Z,82.42
2022-10-15T10:19:05.493Z,82.84
2022-10-15T10:21:37.144Z,81.67
2022-10-15T10:24:32.868Z,81.28
2022-10-15T10:29:41.096Z,78.65
2022-10-15T10:32:20.421Z,77.68
2022-10-15T10:34:52.732Z,76.43
2022-10-15T10:37:22.031Z,76.14
2022-10-15T10:39:54.303Z,76.45
2022-10-15T10:42:40.666Z,73.87
2022-10-15T10:48:00.606Z,73.70
2022-10-15T10:50:32.536Z,73.42
2022-10-15T10:53:21.334Z,73.29
2022-10-15T10:55:51.537Z,70.88
2022-10-15T10:58:30.130Z,71.93
2022-10-15T11:01:00.245Z,71.02
2022-10-15T11:03:35.670Z,70.46
2022-10-15T11:06:52.098Z,70.47
2022-10-15T11:09:46.868Z,70.09
2022-10-15T11:12:31.249Z,68.69
2022-10-15T11:15:13.996Z,67.76
2022-10-15T11:17:53.060Z,68.28
2022-10-15T11:20:47.516Z,68.45
2022-10-15T11:23:33.558Z,69.48
2022-10-15T11:26:12.011Z,67.96
2022-10-15T11:28:55.469Z,67.52
2022-10-15T11:31:40.558Z,67.22
2022-10-15T11:34:30.820Z,65.99
2022-10-15T11:37:12.493Z,66.63
2022-10-15T11:39:52.302Z,67.37
2022-10-15T11:42:26.795Z,66.48
2022-10-15T11:45:17.277Z,65.02
2022-10-15T11:47:51.842Z,65.48
2022-10-15T11:50:28.973Z,66.82
2022-10-15T11:53:19.832Z,66.27
2022-10-15T11:55:53.522Z,65.57
2022-10-15T11:58:29.661Z,63.18
2022-10-15T12:01:04.511Z,65.07
2022-10-15T12:03:38.377Z,63.99
2022-10-15T12:06:11.896Z,65.14
2022-10-15T12:08:44.158Z,64.74
2022-10-15T12:11:23.673Z,65.61
2022-10-15T12:13:59.983Z,64.43
2022-10-15T12:16:37.513Z,62.53
2022-10-15T12:19:15.186Z,62.79
2022-10-15T12:22:06.637Z,64.49
2022-10-15T12:24:56.294Z,63.65
2022-10-15T12:27:30.087Z,64.77
2022-10-15T12:30:22.796Z,63.31
2022-10-15T12:32:52.042Z,62.69
2022-10-15T12:35:24.969Z,63.21
2022-10-15T12:37:54.928Z,64.11
2022-10-15T12:40:30.095Z,64.61
2022-10-15T12:43:00.937Z,63.17
2022-10-15T12:45:40.394Z,60.02
2022-10-15T12:48:30.866Z,61.63
2022-10-15T12:51:38.063Z,64.08
2022-10-15T12:54:42.814Z,61.95
2022-10-15T12:57:48.940Z,61.95
2022-10-15T13:00:40.592Z,62.69
2022-10-15T13:03:15.149Z,63.16
2022-10-15T13:05:44.270Z,63.23
2022-10-15T13:08:17.336Z,65.28
2022-10-15T13:10:52.897Z,62.29
2022-10-15T13:13:25.044Z,63.74
2022-10-15T13:15:59.690Z,65.14
2022-10-15T13:18:30.665Z,64.97
2022-10-15T13:23:35.329Z,66.92
2022-10-15T13:26:22.161Z,68.20
2022-10-15T13:28:52.694Z,70.35
2022-10-15T13:31:28.985Z,67.93
2022-10-15T13:34:02.186Z,68.30
2022-10-15T13:36:33.328Z,67.46
2022-10-15T13:39:05.194Z,70.56
2022-10-15T13:41:40.179Z,68.93
2022-10-15T13:44:22.251Z,70.55
2022-10-15T13:46:51.528Z,70.28
2022-10-15T13:49:20.946Z,72.35
2022-10-15T13:51:53.561Z,70.24
2022-10-15T13:54:25.048Z,71.03
2022-10-15T13:56:57.989Z,71.42
2022-10-15T13:59:28.541Z,71.37
2022-10-15T14:02:01.044Z,70.37
2022-10-15T14:04:31.140Z,70.60
2022-10-15T14:07:03.128Z,69.72
2022-10-15T14:09:34.803Z,71.18
2022-10-15T14:12:07.167Z,71.60
2022-10-15T14:14:39.293Z,73.15
2022-10-15T14:17:09.839Z,71.26
2022-10-15T14:19:39.955Z,68.79
2022-10-15T14:22:08.749Z,70.21
2022-10-15T14:24:39.666Z,69.89
2022-10-15T14:27:15.943Z,71.19
2022-10-15T14:29:46.927Z,71.49
2022-10-15T14:32:26.846Z,73.15
2022-10-15T14:34:56.768Z,73.67
2022-10-15T14:37:41.273Z,72.86
2022-10-15T14:40:19.790Z,73.07
2022-10-15T14:43:02.513Z,73.83
2022-10-15T14:45:32.829Z,73.92
2022-10-15T14:48:08.679Z,75.42
2022-10-15T14:50:42.105Z,75.28
2022-10-15T14:53:17.126Z,76.31
2022-10-15T14:55:52.244Z,76.93
2022-10-15T14:58:24.633Z,77.22
2022-10-15T15:00:58.108Z,77.92
2022-10-15T15:03:31.802Z,76.18
2022-10-15T15:06:00.364Z,76.45
2022-10-15T15:08:29.075Z,76.63
2022-10-15T15:11:01.394Z,75.03
2022-10-15T15:13:33.233Z,74.72
2022-10-15T15:16:03.636Z,75.22
2022-10-15T15:18:34.056Z,75.39
2022-10-15T15:21:05.558Z,76.07
2022-10-15T15:23:36.391Z,75.50
2022-10-15T15:26:07.352Z,76.22
2022-10-15T15:28:37.490Z,75.61
2022-10-15T15:31:09.117Z,75.94
2022-10-15T15:33:37.557Z,76.81
2022-10-15T15:36:09.011Z,72.74
2022-10-15T15:38:37.532Z,71.02
2022-10-15T15:41:13.772Z,74.95
2022-10-15T15:43:44.308Z,75.60
2022-10-15T15:46:13.360Z,76.39
2022-10-15T15:48:41.890Z,75.93
2022-10-15T15:51:19.713Z,79.04
2022-10-15T15:53:48.553Z,80.11
2022-10-15T15:56:17.766Z,80.25
2022-10-15T15:58:50.182Z,80.60
2022-10-15T16:01:19.428Z,79.90
2022-10-15T16:03:48.155Z,80.39
2022-10-15T16:06:16.839Z,80.69
2022-10-15T16:08:45.282Z,80.65
2022-10-15T16:11:14.049Z,80.63
2022-10-15T16:13:43.091Z,80.66
2022-10-15T16:16:13.046Z,80.83
2022-10-15T16:18:41.925Z,81.17
2022-10-15T16:21:10.402Z,82.03
2022-10-15T16:23:38.933Z,81.17
2022-10-15T16:26:07.377Z,82.01
2022-10-15T16:28:36.348Z,81.81
2022-10-15T16:31:17.417Z,81.60
2022-10-15T16:33:46.190Z,83.08
2022-10-15T16:36:15.451Z,82.53
2022-10-15T16:38:45.340Z,83.26
2022-10-15T16:41:15.363Z,83.62
2022-10-15T16:43:44.124Z,83.73
2022-10-15T16:46:12.641Z,84.55
2022-10-15T16:48:42.817Z,83.65
2022-10-15T16:51:13.317Z,83.36
2022-10-15T16:53:43.727Z,83.13
2022-10-15T16:56:14.894Z,83.74
2022-10-15T16:58:43.921Z,84.04
2022-10-15T17:01:14.922Z,83.67
2022-10-15T17:03:45.334Z,85.30
2022-10-15T17:06:15.830Z,84.71
2022-10-15T17:08:47.088Z,85.01
2022-10-15T17:11:17.439Z,84.62
2022-10-15T17:13:46.027Z,84.72
2022-10-15T17:16:16.933Z,85.02
2022-10-15T17:18:47.602Z,85.36
2022-10-15T17:21:18.216Z,84.27
2022-10-15T17:23:47.217Z,85.06
2022-10-15T17:26:17.441Z,84.51
2022-10-15T17:28:47.517Z,84.40
2022-10-15T17:31:18.275Z,85.34
2022-10-15T17:33:50.124Z,84.05
2022-10-15T17:36:20.732Z,85.25
2022-10-15T17:38:49.488Z,85.15
2022-10-15T17:41:20.200Z,86.01
2022-10-15T17:43:50.649Z,85.62
2022-10-15T17:46:21.379Z,85.75
2022-10-15T17:48:51.571Z,86.23
2022-10-15T17:51:22.050Z,85.69
2022-10-15T17:53:54.870Z,85.73
2022-10-15T17:56:25.110Z,85.21
2022-10-15T17:58:57.804Z,85.54
2022-10-15T18:01:33.718Z,84.87
2022-10-15T18:04:11.237Z,84.76
2022-10-15T18:06:44.655Z,85.72
2022-10-15T18:09:23.088Z,85.21
2022-10-15T18:11:51.576Z,85.43
2022-10-15T18:16:49.502Z,85.68
2022-10-15T18:19:19.376Z,86.19
2022-10-15T18:21:49.780Z,85.97
2022-10-15T18:24:21.906Z,85.79
2022-10-15T18:26:51.142Z,85.57
2022-10-15T18:29:20.506Z,85.68
2022-10-15T18:31:53.439Z,85.92
2022-10-15T18:34:26.202Z,84.91
2022-10-15T18:36:55.060Z,84.69
2022-10-15T18:39:25.333Z,84.63
2022-10-15T18:41:54.200Z,85.34
2022-10-15T18:44:23.370Z,85.59
2022-10-15T18:46:52.773Z,85.25
2022-10-15T18:49:22.171Z,85.76
2022-10-15T18:51:53.018Z,85.89
2022-10-15T18:54:22.533Z,85.67
2022-10-15T18:56:52.486Z,85.97
2022-10-15T18:59:21.349Z,86.59
2022-10-15T19:01:50.841Z,85.86
2022-10-15T19:04:21.365Z,86.42
2022-10-15T19:06:53.475Z,86.97
2022-10-15T19:09:23.941Z,86.56
2022-10-15T19:11:54.430Z,86.66
2022-10-15T19:14:23.634Z,87.06
2022-10-15T19:16:53.230Z,86.83
2022-10-15T19:19:22.725Z,86.46
2022-10-15T19:21:53.561Z,85.98
2022-10-15T19:24:22.457Z,85.84
2022-10-15T19:26:51.654Z,86.65
2022-10-15T19:29:21.279Z,85.93
2022-10-15T19:31:54.155Z,86.55
2022-10-15T19:34:23.620Z,85.34
2022-10-15T19:36:53.420Z,85.84
2022-10-15T19:39:25.176Z,86.37
2022-10-15T19:41:54.501Z,86.84
2022-10-15T19:44:27.496Z,86.36
2022-10-15T19:46:56.464Z,86.35
2022-10-15T19:49:25.329Z,86.49
2022-10-15T19:51:55.650Z,86.33
2022-10-15T19:56:53.530Z,87.85
2022-10-15T19:59:22.090Z,87.88
2022-10-15T20:01:50.572Z,87.14
2022-10-15T20:04:21.126Z,87.08
2022-10-15T20:06:52.558Z,87.13
2022-10-15T20:09:22.412Z,87.00
2022-10-15T20:11:50.903Z,86.82
2022-10-15T20:14:19.415Z,87.27
2022-10-15T20:16:47.851Z,86.76
2022-10-15T20:19:16.506Z,87.32
2022-10-15T20:21:45.001Z,87.46
2022-10-15T20:24:13.535Z,87.74
2022-10-15T20:26:43.355Z,87.44
2022-10-15T20:29:11.762Z,88.20
2022-10-15T20:31:40.208Z,88.32
2022-10-15T20:34:08.648Z,87.82
2022-10-15T20:36:41.145Z,88.13
2022-10-15T20:39:09.657Z,87.79
2022-10-15T20:41:38.237Z,87.04
2022-10-15T20:44:11.032Z,88.06
2022-10-15T20:46:44.105Z,87.44
2022-10-15T20:49:18.426Z,87.81
2022-10-15T20:51:46.950Z,87.32
2022-10-15T20:54:16.567Z,87.45
2022-10-15T20:56:44.808Z,87.32
2022-10-15T20:59:14.866Z,87.76
2022-10-15T21:01:43.744Z,87.75
2022-10-15T21:04:12.573Z,87.54
2022-10-15T21:06:41.199Z,87.91
2022-10-15T21:09:09.678Z,88.06
2022-10-15T21:11:41.751Z,88.15
2022-10-15T21:14:10.267Z,87.69
2022-10-15T21:16:40.094Z,88.75
2022-10-15T21:19:08.772Z,88.00
2022-10-15T21:21:37.515Z,87.93
2022-10-15T21:24:06.416Z,87.66
2022-10-15T21:26:34.921Z,88.48
2022-10-15T21:29:03.466Z,88.47
2022-10-15T21:31:31.993Z,88.30
2022-10-15T21:34:01.757Z,87.93
2022-10-15T21:36:30.338Z,88.61
2022-10-15T21:39:01.050Z,88.53
2022-10-15T21:41:32.085Z,88.50
2022-10-15T21:44:01.727Z,88.09
2022-10-15T21:46:30.476Z,88.17
2022-10-15T21:49:01.342Z,87.04
2022-10-15T21:51:31.802Z,87.36
2022-10-15T21:54:02.708Z,87.90
2022-10-15T21:56:31.748Z,87.85
2022-10-15T21:59:00.305Z,88.24
2022-10-15T22:01:31.437Z,87.63
2022-10-15T22:04:02.991Z,87.67
2022-10-15T22:06:31.947Z,87.70
2022-10-15T22:09:01.001Z,87.47
2022-10-15T22:11:31.243Z,87.94
2022-10-15T22:14:01.532Z,88.09
2022-10-15T22:16:30.431Z,88.33
2022-10-15T22:18:59.327Z,87.88
2022-10-15T22:21:31.401Z,87.94
2022-10-15T22:24:01.590Z,88.61
2022-10-15T22:26:32.140Z,88.71
2022-10-15T22:29:02.591Z,87.65
2022-10-15T22:31:31.530Z,87.78
2022-10-15T22:34:00.685Z,87.94
2022-10-15T22:36:31.766Z,87.69
2022-10-15T22:39:02.362Z,88.50
2022-10-15T22:41:33.242Z,88.86
2022-10-15T22:44:02.122Z,88.83
2022-10-15T22:46:33.435Z,88.32
2022-10-15T22:49:02.011Z,88.91
2022-10-15T22:51:31.955Z,89.24
2022-10-15T22:54:01.307Z,88.71
2022-10-15T22:56:30.538Z,89.09
2022-10-15T22:59:00.182Z,88.68
2022-10-15T23:01:29.632Z,89.09
2022-10-15T23:04:02.270Z,89.52
2022-10-15T23:06:33.189Z,89.62
2022-10-15T23:09:02.307Z,89.02
2022-10-15T23:11:32.842Z,89.14
2022-10-15T23:14:04.117Z,88.63
2022-10-15T23:16:34.181Z,88.67
2022-10-15T23:19:05.064Z,89.40
2022-10-15T23:21:37.806Z,89.17
2022-10-15T23:24:07.314Z,88.31
2022-10-15T23:26:36.186Z,88.68
2022-10-15T23:29:06.548Z,88.65
2022-10-15T23:31:36.444Z,88.05
2022-10-15T23:34:06.595Z,88.62
2022-10-15T23:36:38.292Z,87.53
2022-10-15T23:39:07.116Z,88.12
2022-10-15T23:41:35.865Z,88.10
2022-10-15T23:44:04.367Z,87.58
2022-10-15T23:46:32.839Z,88.38
2022-10-15T23:49:01.285Z,88.46
2022-10-15T23:51:31.582Z,88.50
2022-10-15T23:54:02.715Z,88.23
2022-10-15T23:56:31.632Z,88.29
2022-10-15T23:59:01.713Z,88.47
